createdAt,value
2024-01-27T00:00:23.479Z,7.31
2024-01-27T00:03:26.091Z,7.34
2024-01-27T00:06:28.676Z,7.26
2024-01-27T00:09:31.344Z,7.27
2024-01-27T00:12:33.962Z,7.32
2024-01-27T00:15:36.590Z,7.29
2024-01-27T00:18:40.184Z,7.33
2024-01-27T00:21:42.821Z,7.22
2024-01-27T00:24:45.302Z,7.19
2024-01-27T00:27:47.931Z,7.21
2024-01-27T00:30:50.514Z,7.16
2024-01-27T00:33:53.119Z,7.23
2024-01-27T00:36:55.708Z,7.18
2024-01-27T00:39:58.233Z,7.18
2024-01-27T00:43:00.975Z,7.13
2024-01-27T00:46:03.608Z,7.14
2024-01-27T00:49:06.349Z,7.07
2024-01-27T00:52:08.921Z,6.96
2024-01-27T00:55:11.510Z,6.83
2024-01-27T00:58:13.960Z,6.78
2024-01-27T01:01:16.613Z,6.66
2024-01-27T01:04:19.290Z,6.59
2024-01-27T01:07:21.824Z,6.71
2024-01-27T01:10:24.356Z,6.59
2024-01-27T01:13:26.876Z,6.62
2024-01-27T01:16:29.636Z,6.76
2024-01-27T01:19:32.217Z,6.71
2024-01-27T01:22:34.841Z,6.69
2024-01-27T01:25:37.290Z,6.68
2024-01-27T01:28:39.941Z,6.57
2024-01-27T01:31:44.066Z,6.48
2024-01-27T01:34:49.294Z,6.43
2024-01-27T01:37:51.999Z,6.44
2024-01-27T01:40:54.873Z,6.38
2024-01-27T01:43:57.428Z,6.31
2024-01-27T01:46:59.977Z,6.33
2024-01-27T01:50:02.927Z,6.26
2024-01-27T01:53:06.909Z,6.22
2024-01-27T01:56:09.932Z,6.17
2024-01-27T01:59:12.411Z,6.24
2024-01-27T02:02:15.039Z,6.24
2024-01-27T02:05:17.720Z,6.37
2024-01-27T02:08:20.220Z,6.26
2024-01-27T02:11:22.849Z,6.17
2024-01-27T02:14:27.738Z,6.24
2024-01-27T02:17:30.334Z,6.24
2024-01-27T02:20:32.841Z,6.19
2024-01-27T02:23:35.375Z,6.21
2024-01-27T02:26:38.525Z,6.18
2024-01-27T02:29:41.166Z,6.09
2024-01-27T02:32:43.763Z,6.07
2024-01-27T02:35:46.299Z,6.10
2024-01-27T02:38:48.990Z,6.10
2024-01-27T02:41:51.552Z,6.10
2024-01-27T02:44:54.146Z,6.07
2024-01-27T02:47:56.777Z,6.05
2024-01-27T02:51:02.934Z,5.99
2024-01-27T02:54:05.614Z,6.04
2024-01-27T02:57:08.182Z,6.00
2024-01-27T03:00:13.870Z,5.90
2024-01-27T03:03:16.539Z,5.92
2024-01-27T03:06:19.140Z,5.91
2024-01-27T03:09:21.759Z,5.86
2024-01-27T03:12:24.584Z,5.76
2024-01-27T03:15:27.355Z,5.67
2024-01-27T03:18:31.252Z,5.66
2024-01-27T03:21:33.958Z,5.64
2024-01-27T03:24:36.548Z,5.63
2024-01-27T03:27:39.310Z,5.71
2024-01-27T03:30:41.881Z,5.83
2024-01-27T03:33:44.601Z,5.77
2024-01-27T03:36:50.375Z,5.68
2024-01-27T03:39:52.908Z,5.58
2024-01-27T03:42:55.417Z,5.53
2024-01-27T03:46:00.975Z,5.57
2024-01-27T03:49:03.586Z,5.54
2024-01-27T03:52:06.610Z,5.43
2024-01-27T03:55:09.257Z,5.34
2024-01-27T03:58:11.753Z,5.32
2024-01-27T04:01:14.271Z,5.31
2024-01-27T04:04:16.938Z,5.34
2024-01-27T04:07:19.646Z,5.32
2024-01-27T04:10:23.053Z,5.35
2024-01-27T04:13:25.597Z,5.38
2024-01-27T04:16:28.147Z,5.37
2024-01-27T04:19:30.787Z,5.40
2024-01-27T04:22:34.443Z,5.36
2024-01-27T04:25:37.198Z,5.27
2024-01-27T04:28:39.663Z,5.25
2024-01-27T04:31:45.819Z,5.15
2024-01-27T04:34:48.799Z,5.24
2024-01-27T04:37:52.395Z,5.11
2024-01-27T04:40:54.967Z,5.29
2024-01-27T04:43:57.735Z,5.15
2024-01-27T04:47:00.305Z,5.09
2024-01-27T04:50:02.900Z,5.12
2024-01-27T04:53:05.827Z,5.15
2024-01-27T04:56:13.732Z,5.17
2024-01-27T04:59:16.561Z,5.12
2024-01-27T05:02:19.887Z,4.96
2024-01-27T05:05:22.489Z,5.05
2024-01-27T05:08:24.997Z,4.97
2024-01-27T05:11:32.294Z,4.96
2024-01-27T05:14:34.853Z,4.87
2024-01-27T05:17:37.506Z,4.88
2024-01-27T05:20:40.047Z,4.94
2024-01-27T05:23:42.931Z,5.06
2024-01-27T05:26:45.449Z,5.07
2024-01-27T05:29:48.088Z,4.96
2024-01-27T05:32:50.879Z,5.09
2024-01-27T05:35:53.529Z,5.01
2024-01-27T05:38:56.051Z,4.97
2024-01-27T05:41:58.722Z,5.12
2024-01-27T05:45:01.355Z,5.14
2024-01-27T05:48:04.330Z,5.02
2024-01-27T05:51:06.934Z,5.14
2024-01-27T05:54:11.139Z,5.09
2024-01-27T05:57:13.774Z,5.03
2024-01-27T06:00:16.433Z,4.95
2024-01-27T06:03:19.156Z,5.06
2024-01-27T06:06:21.818Z,5.06
2024-01-27T06:09:24.495Z,5.07
2024-01-27T06:12:27.175Z,4.99
2024-01-27T06:15:29.734Z,5.00
2024-01-27T06:18:32.377Z,5.04
2024-01-27T06:21:35.008Z,4.99
2024-01-27T06:24:43.835Z,4.93
2024-01-27T06:27:46.358Z,4.84
2024-01-27T06:30:48.988Z,4.77
2024-01-27T06:33:51.648Z,4.73
2024-01-27T06:36:54.144Z,4.73
2024-01-27T06:39:56.806Z,4.84
2024-01-27T06:43:01.500Z,4.94
2024-01-27T06:46:04.884Z,4.90
2024-01-27T06:49:07.485Z,4.81
2024-01-27T06:52:10.004Z,4.82
2024-01-27T06:55:12.676Z,4.77
2024-01-27T06:58:15.157Z,4.81
2024-01-27T07:01:17.736Z,4.87
2024-01-27T07:04:20.474Z,4.93
2024-01-27T07:07:31.996Z,4.98
2024-01-27T07:10:35.606Z,5.01
2024-01-27T07:13:38.137Z,5.10
2024-01-27T07:16:40.638Z,5.12
2024-01-27T07:19:43.368Z,5.14
2024-01-27T07:22:46.314Z,5.14
2024-01-27T07:25:48.838Z,5.22
2024-01-27T07:28:51.363Z,5.15
2024-01-27T07:31:54.051Z,5.24
2024-01-27T07:34:57.167Z,5.29
2024-01-27T07:37:59.795Z,5.32
2024-01-27T07:41:02.891Z,5.30
2024-01-27T07:44:12.986Z,5.33
2024-01-27T07:47:15.530Z,5.34
2024-01-27T07:50:18.103Z,5.30
2024-01-27T07:53:20.724Z,5.38
2024-01-27T07:56:23.227Z,5.37
2024-01-27T07:59:25.838Z,5.48
2024-01-27T08:02:28.387Z,5.48
2024-01-27T08:05:30.936Z,5.49
2024-01-27T08:08:33.445Z,5.52
2024-01-27T08:11:36.012Z,5.52
2024-01-27T08:14:39.198Z,5.56
2024-01-27T08:17:41.780Z,5.62
2024-01-27T08:20:44.425Z,5.64
2024-01-27T08:23:47.154Z,5.71
2024-01-27T08:26:49.711Z,5.73
2024-01-27T08:29:53.731Z,5.72
2024-01-27T08:32:57.398Z,5.78
2024-01-27T08:35:59.966Z,5.82
2024-01-27T08:39:02.691Z,5.87
2024-01-27T08:42:05.415Z,5.91
2024-01-27T08:45:08.256Z,5.95
2024-01-27T08:48:12.665Z,5.94
2024-01-27T08:51:17.361Z,6.01
2024-01-27T08:54:20.679Z,5.85
2024-01-27T08:57:23.276Z,5.90
2024-01-27T09:00:25.937Z,5.97
2024-01-27T09:03:28.607Z,5.92
2024-01-27T09:06:32.248Z,5.94
2024-01-27T09:09:35.275Z,5.97
2024-01-27T09:12:38.192Z,6.13
2024-01-27T09:15:40.840Z,6.13
2024-01-27T09:18:43.649Z,6.19
2024-01-27T09:21:46.372Z,6.31
2024-01-27T09:24:49.173Z,6.54
2024-01-27T09:27:51.998Z,6.61
2024-01-27T09:30:54.552Z,6.64
2024-01-27T09:33:57.726Z,6.79
2024-01-27T09:37:00.451Z,6.59
2024-01-27T09:40:04.120Z,6.64
2024-01-27T09:43:07.708Z,6.79
2024-01-27T09:46:10.328Z,7.03
2024-01-27T09:49:14.915Z,6.98
2024-01-27T09:52:17.641Z,7.16
2024-01-27T09:55:20.196Z,7.18
2024-01-27T09:58:22.997Z,7.22
2024-01-27T10:01:27.053Z,6.89
2024-01-27T10:04:30.933Z,7.09
2024-01-27T10:07:33.713Z,6.98
2024-01-27T10:10:36.858Z,6.97
2024-01-27T10:13:42.155Z,6.94
2024-01-27T10:16:46.659Z,7.00
2024-01-27T10:19:49.399Z,7.10
2024-01-27T10:22:52.037Z,7.01
2024-01-27T10:25:57.392Z,7.28
2024-01-27T10:29:01.073Z,7.01
2024-01-27T10:32:11.546Z,6.87
2024-01-27T10:35:15.827Z,7.04
2024-01-27T10:38:18.367Z,7.15
2024-01-27T10:41:28.805Z,7.07
2024-01-27T10:44:31.774Z,7.16
2024-01-27T10:47:34.639Z,6.93
2024-01-27T10:50:43.302Z,6.98
2024-01-27T10:53:50.532Z,6.96
2024-01-27T10:56:59.064Z,6.97
2024-01-27T11:00:05.248Z,6.85
2024-01-27T11:03:09.604Z,6.84
2024-01-27T11:06:13.996Z,6.79
2024-01-27T11:09:16.693Z,7.03
2024-01-27T11:12:22.433Z,7.03
2024-01-27T11:15:25.139Z,7.17
2024-01-27T11:18:28.454Z,7.09
2024-01-27T11:21:31.139Z,7.06
2024-01-27T11:24:33.938Z,7.06
2024-01-27T11:27:37.575Z,6.91
2024-01-27T11:30:41.190Z,6.77
2024-01-27T11:33:45.633Z,6.72
2024-01-27T11:36:49.476Z,7.06
2024-01-27T11:39:55.537Z,7.13
2024-01-27T11:43:06.597Z,7.24
2024-01-27T11:46:11.289Z,7.17
2024-01-27T11:49:18.475Z,7.28
2024-01-27T11:52:21.828Z,7.55
2024-01-27T11:55:24.387Z,7.75
2024-01-27T11:58:27.147Z,7.71
2024-01-27T12:01:29.751Z,7.84
2024-01-27T12:04:32.406Z,7.74
2024-01-27T12:07:35.620Z,7.61
2024-01-27T12:10:38.565Z,7.54
2024-01-27T12:13:41.432Z,7.65
2024-01-27T12:16:45.532Z,7.78
2024-01-27T12:19:50.175Z,7.49
2024-01-27T12:23:04.419Z,7.37
2024-01-27T12:26:07.129Z,7.16
2024-01-27T12:29:09.743Z,7.32
2024-01-27T12:32:12.414Z,7.17
2024-01-27T12:35:15.275Z,7.21
2024-01-27T12:38:20.657Z,7.08
2024-01-27T12:41:23.245Z,7.06
2024-01-27T12:44:25.754Z,7.13
2024-01-27T12:47:28.396Z,6.87
2024-01-27T12:50:31.802Z,7.00
2024-01-27T12:53:34.384Z,7.50
2024-01-27T12:56:37.048Z,7.71
2024-01-27T12:59:39.718Z,7.74
2024-01-27T13:02:42.264Z,7.18
2024-01-27T13:05:44.924Z,6.98
2024-01-27T13:08:47.899Z,6.90
2024-01-27T13:11:51.311Z,6.86
2024-01-27T13:14:53.917Z,6.93
2024-01-27T13:17:56.604Z,6.90
2024-01-27T13:20:59.451Z,6.92
2024-01-27T13:24:02.180Z,6.85
2024-01-27T13:27:06.440Z,6.86
2024-01-27T13:30:10.656Z,6.90
2024-01-27T13:33:13.778Z,6.80
2024-01-27T13:36:18.194Z,6.82
2024-01-27T13:39:20.972Z,6.80
2024-01-27T13:42:23.604Z,7.01
2024-01-27T13:45:26.165Z,6.90
2024-01-27T13:48:29.051Z,6.79
2024-01-27T13:51:31.750Z,6.74
2024-01-27T13:54:35.927Z,6.72
2024-01-27T13:57:39.721Z,6.88
2024-01-27T14:00:45.137Z,6.62
2024-01-27T14:03:47.778Z,6.57
2024-01-27T14:06:50.559Z,6.52
2024-01-27T14:09:53.174Z,6.48
2024-01-27T14:12:55.761Z,6.44
2024-01-27T14:15:59.172Z,6.47
2024-01-27T14:19:02.001Z,6.46
2024-01-27T14:22:04.837Z,6.47
2024-01-27T14:25:09.068Z,6.34
2024-01-27T14:28:12.353Z,6.30
2024-01-27T14:31:16.082Z,6.25
2024-01-27T14:34:20.036Z,6.17
2024-01-27T14:37:22.740Z,6.16
2024-01-27T14:40:26.783Z,6.08
2024-01-27T14:43:29.315Z,6.09
2024-01-27T14:46:31.881Z,6.06
2024-01-27T14:49:34.791Z,6.04
2024-01-27T14:52:37.393Z,5.97
2024-01-27T14:55:39.931Z,5.96
2024-01-27T14:58:42.871Z,5.99
2024-01-27T15:01:47.861Z,5.94
2024-01-27T15:04:50.474Z,5.97
2024-01-27T15:07:53.025Z,5.94
2024-01-27T15:10:55.578Z,5.89
2024-01-27T15:13:58.546Z,5.98
2024-01-27T15:17:01.150Z,5.91
2024-01-27T15:20:04.251Z,5.88
2024-01-27T15:23:06.885Z,5.89
2024-01-27T15:26:11.733Z,5.83
2024-01-27T15:29:14.291Z,5.88
2024-01-27T15:32:22.254Z,5.76
2024-01-27T15:35:24.827Z,5.81
2024-01-27T15:38:27.414Z,5.82
2024-01-27T15:41:30.279Z,5.82
2024-01-27T15:44:32.908Z,5.83
2024-01-27T15:47:35.526Z,5.79
2024-01-27T15:50:38.067Z,5.78
2024-01-27T15:53:40.636Z,5.87
2024-01-27T15:56:43.241Z,5.89
2024-01-27T15:59:46.314Z,5.87
2024-01-27T16:02:49.027Z,5.86
2024-01-27T16:05:51.990Z,5.84
2024-01-27T16:08:54.805Z,5.80
2024-01-27T16:11:57.890Z,5.86
2024-01-27T16:15:03.547Z,5.84
2024-01-27T16:18:07.208Z,5.85
2024-01-27T16:21:09.835Z,5.91
2024-01-27T16:24:12.369Z,5.88
2024-01-27T16:27:15.043Z,5.77
2024-01-27T16:30:17.860Z,5.79
2024-01-27T16:33:21.314Z,5.84
2024-01-27T16:36:23.950Z,5.77
2024-01-27T16:39:26.554Z,5.75
2024-01-27T16:42:30.638Z,5.77
2024-01-27T16:45:34.576Z,5.79
2024-01-27T16:48:37.471Z,5.73
2024-01-27T16:51:40.135Z,5.69
2024-01-27T16:54:42.963Z,5.72
2024-01-27T16:57:45.539Z,5.64
2024-01-27T17:00:48.261Z,5.59
2024-01-27T17:03:50.911Z,5.61
2024-01-27T17:06:53.915Z,5.57
2024-01-27T17:09:56.981Z,5.55
2024-01-27T17:12:59.956Z,5.50
2024-01-27T17:16:03.384Z,5.43
2024-01-27T17:19:06.338Z,5.37
2024-01-27T17:22:08.936Z,5.34
2024-01-27T17:25:11.428Z,5.35
2024-01-27T17:28:14.092Z,5.35
2024-01-27T17:31:16.815Z,5.27
2024-01-27T17:34:21.696Z,5.38
2024-01-27T17:37:24.300Z,5.35
2024-01-27T17:40:26.755Z,5.30
2024-01-27T17:43:30.317Z,5.22
2024-01-27T17:46:32.785Z,5.27
2024-01-27T17:49:35.600Z,5.16
2024-01-27T17:52:40.244Z,5.13
2024-01-27T17:55:44.133Z,5.17
2024-01-27T17:58:47.425Z,5.13
2024-01-27T18:01:50.569Z,5.17
2024-01-27T18:04:53.827Z,5.10
2024-01-27T18:07:56.667Z,4.97
2024-01-27T18:10:59.531Z,4.99
2024-01-27T18:14:02.104Z,4.95
2024-01-27T18:17:04.898Z,4.93
2024-01-27T18:20:09.801Z,4.85
2024-01-27T18:23:12.478Z,4.78
2024-01-27T18:26:15.101Z,4.77
2024-01-27T18:29:18.013Z,4.66
2024-01-27T18:32:21.040Z,4.59
2024-01-27T18:35:23.620Z,4.87
2024-01-27T18:38:26.410Z,4.85
2024-01-27T18:41:29.182Z,4.91
2024-01-27T18:44:31.750Z,4.95
2024-01-27T18:47:35.059Z,4.95
2024-01-27T18:50:38.617Z,5.05
2024-01-27T18:53:43.531Z,4.94
2024-01-27T18:56:46.849Z,5.04
2024-01-27T18:59:51.167Z,5.01
2024-01-27T19:02:53.988Z,4.93
2024-01-27T19:05:56.828Z,4.90
2024-01-27T19:09:01.193Z,4.91
2024-01-27T19:12:04.362Z,4.85
2024-01-27T19:15:07.751Z,4.86
2024-01-27T19:18:10.613Z,4.84
2024-01-27T19:21:13.613Z,4.87
2024-01-27T19:24:16.763Z,4.89
2024-01-27T19:27:19.334Z,4.80
2024-01-27T19:30:22.038Z,4.78
2024-01-27T19:33:24.801Z,4.77
2024-01-27T19:36:27.964Z,4.78
2024-01-27T19:39:30.865Z,4.71
2024-01-27T19:42:33.503Z,4.74
2024-01-27T19:45:36.809Z,4.79
2024-01-27T19:48:39.563Z,4.69
2024-01-27T19:51:45.560Z,4.68
2024-01-27T19:54:48.891Z,4.66
2024-01-27T19:57:51.882Z,4.64
2024-01-27T20:00:54.601Z,4.63
2024-01-27T20:03:57.620Z,4.61
2024-01-27T20:07:01.892Z,4.58
2024-01-27T20:10:05.385Z,4.44
2024-01-27T20:13:08.361Z,4.47
2024-01-27T20:16:11.184Z,4.41
2024-01-27T20:19:14.441Z,4.38
2024-01-27T20:22:17.024Z,4.36
2024-01-27T20:25:20.124Z,4.41
2024-01-27T20:28:23.227Z,4.37
2024-01-27T20:31:27.399Z,4.39
2024-01-27T20:34:30.559Z,4.41
2024-01-27T20:37:33.463Z,4.50
2024-01-27T20:40:36.027Z,4.40
2024-01-27T20:43:40.758Z,4.40
2024-01-27T20:46:44.021Z,4.33
2024-01-27T20:49:46.647Z,4.35
2024-01-27T20:52:49.588Z,4.37
2024-01-27T20:55:52.342Z,4.40
2024-01-27T20:58:54.853Z,4.28
2024-01-27T21:02:03.100Z,4.37
2024-01-27T21:05:06.369Z,4.34
2024-01-27T21:08:08.920Z,4.27
2024-01-27T21:11:14.493Z,4.26
2024-01-27T21:14:17.227Z,4.12
2024-01-27T21:17:19.880Z,4.15
2024-01-27T21:20:22.692Z,4.15
2024-01-27T21:23:25.283Z,4.13
2024-01-27T21:26:27.840Z,4.10
2024-01-27T21:29:30.344Z,4.01
2024-01-27T21:32:32.914Z,4.01
2024-01-27T21:35:35.858Z,3.91
2024-01-27T21:38:38.572Z,3.91
2024-01-27T21:41:41.129Z,4.03
2024-01-27T21:44:43.721Z,4.06
2024-01-27T21:47:47.882Z,3.95
2024-01-27T21:50:51.413Z,3.90
2024-01-27T21:53:53.926Z,3.94
2024-01-27T21:56:56.458Z,3.82
2024-01-27T21:59:59.009Z,3.86
2024-01-27T22:03:01.640Z,3.77
2024-01-27T22:06:09.097Z,3.71
2024-01-27T22:09:12.169Z,3.61
2024-01-27T22:12:14.937Z,3.68
2024-01-27T22:15:18.907Z,3.57
2024-01-27T22:18:21.788Z,3.62
2024-01-27T22:21:25.421Z,3.76
2024-01-27T22:24:28.057Z,3.72
2024-01-27T22:27:30.626Z,3.68
2024-01-27T22:30:33.612Z,3.77
2024-01-27T22:33:36.628Z,3.71
2024-01-27T22:36:39.480Z,3.85
2024-01-27T22:39:42.102Z,3.88
2024-01-27T22:42:44.720Z,3.83
2024-01-27T22:45:47.499Z,3.71
2024-01-27T22:48:50.683Z,3.60
2024-01-27T22:51:54.767Z,3.63
2024-01-27T22:54:57.317Z,3.61
2024-01-27T22:57:59.962Z,3.63
2024-01-27T23:01:04.401Z,3.70
2024-01-27T23:04:07.273Z,3.68
2024-01-27T23:07:10.409Z,3.66
2024-01-27T23:10:13.391Z,3.86
2024-01-27T23:13:22.335Z,3.90
2024-01-27T23:16:24.778Z,3.89
2024-01-27T23:19:27.375Z,3.94
2024-01-27T23:22:30.093Z,3.86
2024-01-27T23:25:32.798Z,3.84
2024-01-27T23:28:35.502Z,3.91
2024-01-27T23:31:38.159Z,3.93
2024-01-27T23:34:42.064Z,3.87
2024-01-27T23:37:44.728Z,3.92
2024-01-27T23:40:50.346Z,3.91
2024-01-27T23:43:54.415Z,3.87
2024-01-27T23:46:57.105Z,3.73
2024-01-27T23:50:00.077Z,3.69
2024-01-27T23:53:09.609Z,3.54
2024-01-27T23:56:14.358Z,3.27
2024-01-27T23:59:16.975Z,3.29
